Terminal Aerodrome Forecast
Issued by NWS Charleston, WV

Current Version | Previous Version | Graphics & Text | Print | Product List | Glossary On
Versions: 1 2 3 4 5 6 7 8 9 10 11 12 13 14 15 16 17 18 19 20 21 22 23 24 25 26 27 28
489
FTUS41 KRLX 221138
TAFBKW
TAF
KBKW 221138Z 2212/2312 22003KT P6SM BKN100
     FM221500 24006KT P6SM VCTS SCT035CB BKN070
     FM222200 24005KT P6SM SCT045
     FM230100 17005KT P6SM BKN250
     FM230500 23005KT P6SM BKN250
     FM230900 25004KT P6SM BKN015=

USA.gov is the U.S. government's official web portal to all federal, state and local government web resources and services.